Forside
METAR-TAF:

METAR-TAF

Lufthavne :

Kagoshima, Japan

Breddekreds: 31-48N, længdekreds: 130-43E, højde: 272 m

Aktuelle vejr

Denne rapport blev lavet for 40 minutter siden, kl. 08:00 UTC
Vind 11 kt fra nordnordvest
Temperatur 13°C
Fugtighed 47%
Tryk 1022 hPa
Sigt 10 km eller mere
Nogle få skyer i en højde af 3000 ft

METAR: RJFK 270800Z 34011KT 9999 FEW030 13/02 Q1022 RMK 1CU030 A3018 VOLCANIC ASH CLOUD S

Tid: 17:40 (08:40 UTC)

Vejrudsigter

Denne rapport blev lavet for 3 timer og 34 minutter siden, kl. 05:06 UTC
Foreløbig gælder fra 27 på 06 UTC til 28 på 12 UTC
Vind 10 kt fra nord
Sigt 10 km eller mere
Nogle få skyer i en højde af 3000 ft
ændring
fra 27 på 13 UTC til 27 på 15 UTC
Vind 8 kt fra øst

TAF: RJFK 270506Z 2706/2812 35010KT 9999 FEW030 BECMG 2713/2715 10008KT

Vejrobservationer og prognoser fra mere end 4000 lufthavne (METAR og TAF).

De gule og røde prikker repræsenterer de meteorologiske stationer.

Flyt musen over at se navnet på stationen.

Så klik over at se vejr observationer og prognoser.

At skifte det kort: Klik på de grønne knapper med et sort kors for at zoome ind; på den grønne knap med en bindestreg for at zoome ud; eller på de grønne pile for tilstødende kort.


METAR-TAF: